Time;durP1;ratioP1;P1;durP2;ratioP2;P2;SDS_P1;SDS_P2;PMS_P1;PMS_P2;Temp;Humidity;BMP_temperature;BMP_pressure;BME280_temperature;BME280_humidity;BME280_pressure;Samples;Min_cycle;Max_cycle;Signal;HPM_P1;HPM_P2
2024/02/16 00:02:06;;;;;;;5.05;2.60;;;13.90;99.90;;;;;;5039827;28;20045;-72
2024/02/16 00:04:31;;;;;;;8.43;3.20;;;13.80;99.90;;;;;;5037930;28;20082;-74
2024/02/16 00:06:57;;;;;;;5.00;2.42;;;13.80;99.90;;;;;;5036378;28;20029;-74
2024/02/16 00:09:22;;;;;;;4.47;2.95;;;13.80;99.90;;;;;;5038913;28;20036;-73
2024/02/16 00:12:07;;;;;;;4.25;2.35;;;13.80;99.90;;;;;;5038133;28;20545;-73
2024/02/16 00:14:32;;;;;;;6.80;2.47;;;13.80;99.90;;;;;;5036094;28;20078;-74
2024/02/16 00:16:59;;;;;;;4.30;2.15;;;13.80;99.90;;;;;;5034371;28;20034;-75
2024/02/16 00:19:25;;;;;;;5.60;2.60;;;13.80;99.90;;;;;;5039173;28;20025;-73
2024/02/16 00:21:51;;;;;;;5.07;2.90;;;13.80;99.90;;;;;;5040511;28;20041;-73
2024/02/16 00:24:36;;;;;;;7.03;2.38;;;13.80;99.90;;;;;;5033775;28;20021;-75
2024/02/16 00:27:05;;;;;;;4.53;2.38;;;13.80;99.90;;;;;;5041559;28;20017;-75
2024/02/16 00:29:31;;;;;;;4.13;2.50;;;13.70;99.90;;;;;;5036256;28;20117;-73
2024/02/16 00:31:59;;;;;;;5.60;2.40;;;13.80;99.90;;;;;;5040285;28;20025;-76
2024/02/16 00:34:25;;;;;;;4.60;3.05;;;13.80;99.90;;;;;;5039959;28;20021;-75
2024/02/16 00:37:11;;;;;;;3.97;2.60;;;13.80;99.90;;;;;;5039025;28;20017;-75
2024/02/16 00:39:40;;;;;;;3.60;2.75;;;13.80;99.90;;;;;;5037747;28;20029;-75
2024/02/16 00:42:06;;;;;;;4.18;2.67;;;13.90;99.90;;;;;;5038669;28;20035;-76
2024/02/16 00:44:32;;;;;;;3.80;2.47;;;13.90;99.90;;;;;;5037665;28;20037;-76
2024/02/16 00:46:58;;;;;;;4.65;2.40;;;13.90;99.90;;;;;;5037118;28;20096;-74
2024/02/16 00:49:24;;;;;;;5.55;2.47;;;13.90;99.90;;;;;;5034711;28;20028;-75
2024/02/16 00:51:50;;;;;;;3.50;2.33;;;13.80;99.90;;;;;;5036260;28;20547;-75
2024/02/16 00:54:17;;;;;;;3.65;2.20;;;13.80;99.90;;;;;;5032833;28;20110;-73
2024/02/16 00:56:42;;;;;;;4.20;2.50;;;13.80;99.90;;;;;;5032301;28;20025;-73
2024/02/16 00:59:09;;;;;;;5.13;2.85;;;13.80;99.90;;;;;;5040771;28;20481;-75
2024/02/16 01:01:53;;;;;;;4.13;2.22;;;13.80;99.90;;;;;;5032828;28;20037;-75
2024/02/16 01:04:19;;;;;;;7.13;2.58;;;13.70;99.90;;;;;;5036616;28;20118;-76
2024/02/16 01:06:46;;;;;;;4.50;2.38;;;13.70;99.90;;;;;;5035046;28;20060;-75
2024/02/16 01:09:31;;;;;;;4.65;2.47;;;13.70;99.90;;;;;;5036031;28;20021;-74
2024/02/16 01:11:57;;;;;;;6.28;3.08;;;13.70;99.90;;;;;;5038516;28;20074;-74
2024/02/16 01:14:22;;;;;;;3.47;2.72;;;13.70;99.90;;;;;;5039784;28;20416;-75
2024/02/16 01:16:48;;;;;;;2.88;2.13;;;13.70;99.90;;;;;;5036995;28;20029;-75
2024/02/16 01:19:14;;;;;;;4.50;2.38;;;13.70;99.90;;;;;;5039629;28;20555;-76
2024/02/16 01:21:39;;;;;;;3.00;2.47;;;13.70;99.90;;;;;;5039548;28;20034;-75
2024/02/16 01:24:24;;;;;;;4.93;2.40;;;13.60;99.90;;;;;;5035359;28;20025;-73
2024/02/16 01:26:50;;;;;;;4.35;2.70;;;13.60;99.90;;;;;;5044860;28;20433;-76
2024/02/16 01:29:16;;;;;;;6.43;2.65;;;13.60;99.90;;;;;;5039875;28;20053;-75
2024/02/16 01:31:41;;;;;;;5.93;2.53;;;13.60;99.90;;;;;;5039602;28;20502;-76
2024/02/16 01:34:07;;;;;;;3.55;2.22;;;13.50;99.90;;;;;;5041496;28;20040;-75
2024/02/16 01:36:32;;;;;;;3.03;2.08;;;13.40;99.90;;;;;;5037484;28;20113;-75
2024/02/16 01:38:58;;;;;;;8.52;2.90;;;13.40;99.90;;;;;;5042183;28;20469;-76
2024/02/16 01:41:24;;;;;;;6.32;2.60;;;13.40;99.90;;;;;;5041957;28;20036;-76
2024/02/16 01:43:55;;;;;;;4.55;2.58;;;13.30;99.90;;;;;;5021954;28;20120;-76
2024/02/16 01:46:22;;;;;;;6.10;2.35;;;13.30;99.90;;;;;;5028542;28;20018;-76
2024/02/16 01:48:50;;;;;;;3.85;2.40;;;13.30;99.90;;;;;;5035244;28;20029;-75
2024/02/16 01:51:15;;;;;;;5.80;2.50;;;13.30;99.90;;;;;;5025162;28;20033;-75
2024/02/16 01:53:41;;;;;;;3.80;2.65;;;13.30;99.90;;;;;;5034998;28;20071;-75
2024/02/16 01:56:07;;;;;;;4.80;2.58;;;13.40;99.90;;;;;;5032509;28;20033;-75
2024/02/16 01:58:34;;;;;;;6.18;2.83;;;13.40;99.90;;;;;;5034635;28;20119;-75
2024/02/16 02:01:00;;;;;;;4.07;2.70;;;13.40;99.90;;;;;;5029074;28;20037;-75
2024/02/16 02:03:25;;;;;;;6.47;2.28;;;13.30;99.90;;;;;;5033643;28;20406;-75
2024/02/16 02:05:54;;;;;;;3.50;2.17;;;13.40;99.90;;;;;;5038764;28;20037;-75
2024/02/16 02:08:20;;;;;;;5.88;2.40;;;13.30;99.90;;;;;;5033313;28;20017;-75
2024/02/16 02:10:45;;;;;;;7.97;3.08;;;13.30;99.90;;;;;;5034523;28;20505;-76
2024/02/16 02:13:11;;;;;;;10.65;2.45;;;13.30;99.90;;;;;;5034512;28;20219;-76
2024/02/16 02:15:37;;;;;;;5.15;2.63;;;13.30;99.90;;;;;;5024667;28;20033;-74
2024/02/16 02:18:02;;;;;;;2.45;2.25;;;13.30;99.90;;;;;;5034968;28;20491;-76
2024/02/16 02:20:28;;;;;;;6.55;2.60;;;13.30;99.90;;;;;;5034831;28;20466;-75
2024/02/16 02:23:13;;;;;;;4.38;2.85;;;13.20;99.90;;;;;;5034477;28;20039;-75
2024/02/16 02:25:39;;;;;;;5.15;2.60;;;13.20;99.90;;;;;;5033474;28;20018;-75
2024/02/16 02:31:09;;;;;;;5.28;2.50;;;13.30;99.90;;;;;;5033667;28;20040;-75
2024/02/16 02:33:35;;;;;;;3.60;2.20;;;13.30;99.90;;;;;;5023698;28;20033;-75
2024/02/16 02:36:01;;;;;;;2.97;2.60;;;13.30;99.90;;;;;;5034305;28;20009;-75
2024/02/16 02:38:27;;;;;;;8.90;2.38;;;13.30;99.90;;;;;;5034566;28;20022;-75
2024/02/16 02:40:52;;;;;;;4.55;2.35;;;13.30;99.90;;;;;;5033955;28;20024;-74
2024/02/16 02:43:19;;;;;;;3.70;2.42;;;13.30;99.90;;;;;;5034096;28;20052;-76
2024/02/16 02:45:44;;;;;;;4.25;2.47;;;13.30;99.90;;;;;;5034317;28;20018;-75
2024/02/16 02:48:10;;;;;;;6.53;2.58;;;13.20;99.90;;;;;;5033287;28;20025;-75
2024/02/16 02:50:36;;;;;;;3.17;2.38;;;13.30;99.90;;;;;;5034001;28;20017;-75
2024/02/16 02:53:01;;;;;;;5.18;2.85;;;13.30;99.90;;;;;;5034344;28;20021;-75
2024/02/16 02:55:27;;;;;;;5.80;2.72;;;13.30;99.90;;;;;;5034015;28;20049;-75
2024/02/16 02:57:53;;;;;;;3.33;3.03;;;13.30;99.90;;;;;;5034024;28;20104;-76
2024/02/16 03:03:22;;;;;;;5.78;2.92;;;13.30;99.90;;;;;;5033771;28;20057;-75
2024/02/16 03:05:50;;;;;;;4.80;2.85;;;13.30;99.90;;;;;;5033316;28;20475;-76
2024/02/16 03:08:15;;;;;;;5.70;2.53;;;13.40;99.90;;;;;;5034041;28;20444;-73
2024/02/16 03:10:41;;;;;;;4.80;3.25;;;13.30;99.90;;;;;;5033661;28;20132;-74
2024/02/16 03:13:08;;;;;;;4.90;2.20;;;13.30;99.90;;;;;;5034133;28;20528;-75
2024/02/16 03:15:35;;;;;;;4.25;2.33;;;13.30;99.90;;;;;;5034081;28;20100;-75
2024/02/16 03:18:02;;;;;;;5.72;2.60;;;13.40;99.90;;;;;;5034246;28;20013;-75
2024/02/16 03:20:48;;;;;;;6.53;2.88;;;13.40;99.90;;;;;;5034202;28;20022;-74
2024/02/16 03:23:14;;;;;;;5.22;3.25;;;13.40;99.90;;;;;;5033684;28;20041;-75
2024/02/16 03:25:40;;;;;;;5.78;3.00;;;13.40;99.90;;;;;;5033189;28;20097;-76
2024/02/16 03:28:10;;;;;;;4.43;2.38;;;13.40;99.90;;;;;;5031883;28;20570;-75
2024/02/16 03:30:35;;;;;;;4.43;2.85;;;13.40;99.90;;;;;;5033202;28;20022;-73
2024/02/16 03:38:29;;;;;;;4.75;2.63;;;13.50;99.90;;;;;;5023007;28;20441;-73
2024/02/16 03:41:32;;;;;;;5.50;2.97;;;13.50;99.90;;;;;;5033096;28;20029;-74
2024/02/16 03:44:17;;;;;;;4.53;3.40;;;13.40;99.90;;;;;;5033671;28;20033;-74
2024/02/16 03:46:43;;;;;;;5.90;3.03;;;13.50;99.90;;;;;;5033416;28;20032;-73
2024/02/16 03:49:09;;;;;;;3.35;2.70;;;13.50;99.90;;;;;;5032100;28;20108;-76
2024/02/16 03:51:36;;;;;;;6.45;2.72;;;13.60;99.90;;;;;;5033731;28;20405;-75
2024/02/16 03:54:02;;;;;;;6.40;3.50;;;13.50;99.90;;;;;;5033629;28;20013;-74
2024/02/16 03:56:28;;;;;;;5.78;2.60;;;13.60;99.90;;;;;;5032961;28;20021;-73
2024/02/16 03:58:54;;;;;;;8.55;3.30;;;13.60;99.90;;;;;;5033043;28;20378;-76
2024/02/16 04:01:19;;;;;;;6.47;2.72;;;13.70;99.90;;;;;;5033147;28;20041;-74
2024/02/16 04:03:45;;;;;;;6.70;3.28;;;13.70;99.90;;;;;;5028388;28;20092;-76
2024/02/16 04:06:10;;;;;;;4.18;2.90;;;13.70;99.90;;;;;;5023783;28;20020;-73
2024/02/16 04:08:36;;;;;;;2.97;2.60;;;13.60;99.90;;;;;;5032901;28;20052;-73
2024/02/16 04:11:02;;;;;;;5.13;2.83;;;13.60;99.90;;;;;;5032633;28;20485;-74
2024/02/16 04:13:28;;;;;;;5.72;3.13;;;13.60;99.90;;;;;;5032861;28;20022;-75
2024/02/16 04:15:54;;;;;;;8.45;3.08;;;13.60;99.90;;;;;;5032898;28;20485;-73
2024/02/16 04:18:38;;;;;;;3.42;2.78;;;13.60;99.90;;;;;;5032744;28;20028;-75
2024/02/16 04:21:04;;;;;;;6.60;2.90;;;13.60;99.90;;;;;;5032540;28;20045;-73
2024/02/16 04:23:29;;;;;;;5.32;2.75;;;13.60;99.90;;;;;;5024844;28;20411;-75
2024/02/16 04:25:55;;;;;;;4.82;3.00;;;13.70;99.90;;;;;;5024547;28;20422;-75
2024/02/16 04:28:21;;;;;;;5.53;2.80;;;13.70;99.90;;;;;;5030711;28;20484;-76
2024/02/16 04:30:47;;;;;;;5.45;2.60;;;13.60;99.90;;;;;;5031656;28;20076;-76
2024/02/16 04:33:31;;;;;;;4.88;2.45;;;13.60;99.90;;;;;;5032621;28;20052;-75
2024/02/16 04:35:57;;;;;;;6.20;2.83;;;13.70;99.90;;;;;;5031090;28;20455;-75
2024/02/16 04:38:22;;;;;;;6.65;3.00;;;13.70;99.90;;;;;;5031160;28;20026;-75
2024/02/16 04:40:48;;;;;;;6.90;3.72;;;13.70;99.90;;;;;;5017142;28;20026;-75
2024/02/16 04:43:13;;;;;;;4.30;2.55;;;13.70;99.90;;;;;;5032341;28;20037;-73
2024/02/16 04:45:39;;;;;;;4.18;2.83;;;13.70;99.90;;;;;;5032475;28;20025;-72
2024/02/16 04:48:05;;;;;;;5.30;2.63;;;13.70;99.90;;;;;;5032046;28;20026;-73
2024/02/16 04:50:35;;;;;;;4.30;2.70;;;13.70;99.90;;;;;;5031757;28;20083;-75
2024/02/16 04:53:04;;;;;;;7.30;2.58;;;13.70;99.90;;;;;;5031666;28;20026;-75
2024/02/16 04:55:30;;;;;;;5.18;2.70;;;13.70;99.90;;;;;;5031371;28;20033;-75
2024/02/16 04:57:57;;;;;;;5.80;2.97;;;13.70;99.90;;;;;;5032185;28;20474;-75
2024/02/16 05:00:22;;;;;;;5.18;2.92;;;13.70;99.90;;;;;;5031576;28;20037;-75
2024/02/16 05:02:50;;;;;;;4.93;2.63;;;13.70;99.90;;;;;;5030127;28;20038;-75
2024/02/16 05:05:15;;;;;;;4.47;2.55;;;13.70;99.90;;;;;;5031974;28;20065;-75
2024/02/16 05:07:43;;;;;;;7.78;3.17;;;13.80;99.90;;;;;;5029954;28;20058;-76
2024/02/16 05:10:09;;;;;;;3.55;2.88;;;13.80;99.90;;;;;;5031502;28;20061;-75
2024/02/16 05:12:35;;;;;;;2.95;2.33;;;13.80;99.90;;;;;;5032265;28;20053;-76
2024/02/16 05:15:00;;;;;;;6.25;3.00;;;13.80;99.90;;;;;;5032002;28;20482;-75
2024/02/16 05:17:26;;;;;;;7.28;2.88;;;13.90;99.90;;;;;;5031413;28;20130;-75
2024/02/16 05:19:53;;;;;;;5.72;2.83;;;13.90;99.90;;;;;;5018425;28;20456;-73
2024/02/16 05:22:38;;;;;;;5.18;3.40;;;13.90;99.90;;;;;;5022693;28;20026;-73
2024/02/16 05:25:04;;;;;;;5.22;2.90;;;13.90;99.90;;;;;;5031939;28;20044;-75
2024/02/16 05:27:30;;;;;;;4.35;2.40;;;13.90;99.90;;;;;;5031741;28;20482;-75
2024/02/16 05:29:55;;;;;;;5.18;2.45;;;13.90;99.90;;;;;;5031529;28;20060;-76
2024/02/16 05:32:40;;;;;;;6.13;2.80;;;14.00;99.90;;;;;;5031823;28;20029;-75
2024/02/16 05:35:14;;;;;;;4.85;3.00;;;14.00;99.90;;;;;;5029760;28;20033;-75
2024/02/16 05:37:49;;;;;;;4.20;2.50;;;14.10;99.90;;;;;;5031264;28;20018;-75
2024/02/16 05:40:26;;;;;;;5.45;3.47;;;14.00;99.90;;;;;;5030860;28;20025;-73
2024/02/16 05:42:53;;;;;;;4.80;2.97;;;14.00;99.90;;;;;;5031352;28;20026;-73
2024/02/16 05:45:19;;;;;;;8.48;3.00;;;14.00;99.90;;;;;;5031597;28;20017;-75
2024/02/16 05:47:46;;;;;;;5.78;3.17;;;14.00;99.90;;;;;;5031736;28;20067;-76
2024/02/16 05:50:12;;;;;;;8.27;3.33;;;14.00;99.90;;;;;;5030871;28;20399;-73
2024/02/16 05:55:44;;;;;;;3.67;2.97;;;14.00;99.90;;;;;;5031960;28;20047;-75
2024/02/16 05:58:10;;;;;;;6.15;3.25;;;14.00;99.90;;;;;;5030788;28;20017;-75
2024/02/16 06:00:36;;;;;;;4.70;2.78;;;14.00;99.90;;;;;;5030188;28;20475;-74
2024/02/16 06:03:02;;;;;;;5.65;3.05;;;14.10;99.90;;;;;;5030363;28;20041;-75
2024/02/16 06:05:28;;;;;;;7.43;2.92;;;14.10;99.90;;;;;;5035236;28;20018;-73
2024/02/16 06:07:56;;;;;;;6.25;2.90;;;14.10;99.90;;;;;;5034914;28;20026;-73
2024/02/16 06:10:22;;;;;;;2.92;2.25;;;14.10;99.90;;;;;;5029092;28;20025;-74
2024/02/16 06:12:48;;;;;;;4.00;2.63;;;14.10;99.90;;;;;;5022596;28;20022;-75
2024/02/16 06:15:33;;;;;;;8.18;2.92;;;14.10;99.90;;;;;;5035023;28;20025;-74
2024/02/16 06:18:00;;;;;;;5.55;2.88;;;14.10;99.90;;;;;;5034432;28;20021;-75
2024/02/16 06:20:26;;;;;;;7.65;3.20;;;14.00;99.90;;;;;;5035175;28;20100;-75
2024/02/16 06:22:52;;;;;;;6.25;2.92;;;14.10;99.90;;;;;;5034481;28;20029;-72
2024/02/16 06:25:18;;;;;;;7.38;3.70;;;14.00;99.90;;;;;;5033661;28;20017;-75
2024/02/16 06:27:44;;;;;;;5.72;3.38;;;14.00;99.90;;;;;;5034942;28;20030;-74
2024/02/16 06:30:12;;;;;;;6.38;3.13;;;14.10;99.90;;;;;;5034918;28;20367;-73
2024/02/16 06:32:40;;;;;;;7.93;3.45;;;14.10;99.90;;;;;;5034179;28;20026;-75
2024/02/16 06:35:07;;;;;;;6.75;3.10;;;14.10;99.90;;;;;;5022656;28;20132;-75
2024/02/16 06:37:33;;;;;;;5.43;3.28;;;14.20;99.90;;;;;;5029819;28;20036;-75
2024/02/16 06:39:58;;;;;;;5.78;3.25;;;14.20;99.90;;;;;;5034587;28;20033;-74
2024/02/16 06:42:24;;;;;;;7.40;3.30;;;14.10;99.90;;;;;;5034659;28;20083;-76
2024/02/16 06:45:09;;;;;;;5.43;3.05;;;14.10;99.90;;;;;;5033622;28;20025;-75
2024/02/16 06:47:34;;;;;;;6.32;3.42;;;14.10;99.90;;;;;;5018327;28;20025;-73
2024/02/16 06:50:01;;;;;;;7.43;3.33;;;14.10;99.90;;;;;;5033222;28;20494;-72
2024/02/16 06:52:46;;;;;;;5.68;2.95;;;14.10;99.90;;;;;;5023267;28;20082;-76
2024/02/16 06:55:12;;;;;;;5.03;2.67;;;14.10;99.90;;;;;;5033791;28;20104;-72
2024/02/16 06:57:37;;;;;;;5.15;2.95;;;14.10;99.90;;;;;;5034565;28;20082;-74
2024/02/16 07:00:05;;;;;;;5.38;2.80;;;14.10;99.90;;;;;;5023382;28;20099;-73
2024/02/16 07:02:30;;;;;;;6.03;3.20;;;14.10;99.90;;;;;;5024727;28;20619;-75
2024/02/16 07:04:56;;;;;;;5.97;2.95;;;14.20;99.90;;;;;;5034014;28;20106;-72
2024/02/16 07:07:41;;;;;;;12.05;3.78;;;14.10;99.90;;;;;;5032567;28;20018;-72
2024/02/16 07:10:08;;;;;;;4.63;3.10;;;14.10;99.90;;;;;;5018625;28;20026;-72
2024/02/16 07:12:33;;;;;;;6.07;2.80;;;14.10;99.90;;;;;;5028578;28;20091;-72
2024/02/16 07:14:59;;;;;;;4.50;3.00;;;14.10;99.90;;;;;;5022416;28;20022;-72
2024/02/16 07:17:25;;;;;;;4.65;2.90;;;14.10;99.90;;;;;;5032904;28;20029;-72
2024/02/16 07:22:35;;;;;;;7.03;3.22;;;14.20;99.90;;;;;;5022458;28;20158;-72
2024/02/16 07:25:00;;;;;;;6.65;3.70;;;14.20;99.90;;;;;;5029036;28;20185;-72
2024/02/16 07:27:44;;;;;;;5.25;3.50;;;14.20;99.90;;;;;;5032903;28;20112;-72
2024/02/16 07:30:12;;;;;;;6.15;3.65;;;14.10;99.90;;;;;;5020790;28;20434;-72
2024/02/16 07:32:38;;;;;;;7.80;3.58;;;14.20;99.90;;;;;;5031709;28;20030;-72
2024/02/16 07:35:04;;;;;;;7.50;3.85;;;14.10;99.90;;;;;;5028721;28;20470;-72
2024/02/16 07:37:30;;;;;;;7.20;3.67;;;14.30;99.90;;;;;;5032682;28;20048;-73
2024/02/16 07:39:55;;;;;;;6.85;3.25;;;14.30;99.90;;;;;;5031229;28;20017;-72
2024/02/16 07:42:21;;;;;;;16.25;4.32;;;14.30;99.90;;;;;;5032002;28;20494;-72
2024/02/16 07:44:47;;;;;;;6.95;3.42;;;14.30;99.90;;;;;;5032013;28;20025;-72
2024/02/16 07:47:13;;;;;;;3.67;2.90;;;14.30;99.90;;;;;;5033482;28;20064;-72
2024/02/16 07:49:42;;;;;;;6.45;3.83;;;14.40;99.90;;;;;;5033244;28;20025;-72
2024/02/16 07:52:08;;;;;;;10.30;3.15;;;14.40;99.90;;;;;;5032814;28;20111;-72
2024/02/16 07:54:34;;;;;;;5.72;3.25;;;14.50;99.90;;;;;;5032581;28;20025;-72
2024/02/16 07:57:00;;;;;;;9.57;3.33;;;14.50;99.90;;;;;;5033005;28;20112;-72
2024/02/16 07:59:26;;;;;;;5.03;3.10;;;14.40;99.90;;;;;;5033416;28;20028;-72
2024/02/16 08:01:51;;;;;;;4.28;3.22;;;14.40;99.90;;;;;;5031821;28;20076;-72
2024/02/16 08:04:17;;;;;;;4.72;3.85;;;14.40;99.90;;;;;;5033016;28;20057;-72
2024/02/16 08:06:43;;;;;;;10.00;4.05;;;14.50;99.90;;;;;;5020990;28;20501;-72
2024/02/16 08:09:08;;;;;;;10.13;3.80;;;14.40;99.90;;;;;;5029631;28;20021;-72
2024/02/16 08:11:34;;;;;;;8.82;3.50;;;14.40;99.90;;;;;;5026475;28;20044;-72
2024/02/16 08:14:00;;;;;;;6.50;3.67;;;14.50;99.90;;;;;;5031260;28;20560;-72
2024/02/16 08:16:29;;;;;;;10.63;3.80;;;14.50;99.90;;;;;;5031546;28;20501;-72
2024/02/16 08:18:56;;;;;;;5.97;3.55;;;14.60;99.90;;;;;;5032608;28;20068;-73
2024/02/16 08:21:22;;;;;;;7.78;3.92;;;14.60;99.90;;;;;;5028479;28;20038;-72
2024/02/16 08:23:48;;;;;;;5.22;3.45;;;14.60;99.90;;;;;;5031724;28;20048;-73
2024/02/16 08:26:13;;;;;;;7.25;3.40;;;14.60;99.90;;;;;;5028254;28;20013;-73
2024/02/16 08:28:39;;;;;;;5.35;3.65;;;14.60;99.90;;;;;;5031795;28;20089;-73
2024/02/16 08:31:06;;;;;;;8.93;4.00;;;14.60;99.90;;;;;;5032235;28;20466;-72
2024/02/16 08:33:33;;;;;;;12.95;4.05;;;14.70;99.90;;;;;;5032146;28;20088;-72
2024/02/16 08:35:58;;;;;;;5.85;3.17;;;14.60;99.90;;;;;;5032204;28;20017;-73
2024/02/16 08:38:24;;;;;;;8.88;3.30;;;14.70;99.90;;;;;;5032029;28;20037;-73
2024/02/16 08:40:51;;;;;;;11.82;3.90;;;14.70;99.90;;;;;;5015339;28;20061;-73
2024/02/16 08:43:17;;;;;;;9.20;3.25;;;14.70;99.90;;;;;;5028144;28;20033;-73
2024/02/16 08:45:43;;;;;;;9.75;3.53;;;14.70;99.90;;;;;;5032034;28;20026;-73
2024/02/16 08:48:09;;;;;;;7.72;3.97;;;14.70;99.90;;;;;;5031047;28;20029;-73
2024/02/16 08:50:34;;;;;;;9.35;4.72;;;14.80;99.90;;;;;;5030923;28;20032;-72
2024/02/16 08:53:00;;;;;;;7.22;3.65;;;14.80;99.90;;;;;;5032225;28;20126;-72
2024/02/16 08:55:26;;;;;;;6.38;3.78;;;14.80;99.90;;;;;;5025556;28;20014;-72
2024/02/16 08:57:52;;;;;;;9.80;3.72;;;14.80;99.90;;;;;;5024793;28;20072;-73
2024/02/16 09:00:18;;;;;;;9.77;3.88;;;14.80;99.90;;;;;;5029734;28;20026;-73
2024/02/16 09:02:45;;;;;;;8.57;4.03;;;14.90;99.90;;;;;;5030280;28;20037;-73
2024/02/16 09:05:11;;;;;;;6.90;4.05;;;14.90;99.90;;;;;;5022419;28;20080;-72
2024/02/16 09:07:37;;;;;;;8.20;3.78;;;14.90;99.90;;;;;;5025534;28;20386;-73
2024/02/16 09:10:04;;;;;;;6.28;3.72;;;14.90;99.90;;;;;;5027756;28;20140;-73
2024/02/16 09:12:30;;;;;;;5.45;3.45;;;14.80;99.90;;;;;;5026041;28;20030;-73
2024/02/16 09:14:55;;;;;;;16.55;5.05;;;14.90;99.90;;;;;;5031693;28;20025;-74
2024/02/16 09:17:21;;;;;;;7.30;3.67;;;14.90;99.90;;;;;;5031752;28;20033;-73
2024/02/16 09:19:47;;;;;;;11.10;5.03;;;14.90;99.90;;;;;;5023129;28;20470;-75
2024/02/16 09:22:12;;;;;;;10.40;4.10;;;14.80;99.90;;;;;;5026119;28;20508;-75
2024/02/16 09:24:39;;;;;;;7.50;4.88;;;14.80;99.90;;;;;;5031296;28;20026;-75
2024/02/16 09:27:05;;;;;;;6.55;4.50;;;14.80;99.90;;;;;;5029281;28;20036;-75
2024/02/16 09:29:31;;;;;;;9.48;5.00;;;14.70;99.90;;;;;;5024999;28;20108;-74
2024/02/16 09:31:56;;;;;;;13.30;5.00;;;14.70;99.90;;;;;;5021404;28;20049;-74
2024/02/16 09:34:22;;;;;;;9.80;5.07;;;14.70;99.90;;;;;;5025007;28;20025;-75
2024/02/16 09:36:47;;;;;;;14.90;5.43;;;14.70;99.90;;;;;;5030641;28;20029;-75
2024/02/16 09:39:13;;;;;;;10.82;5.07;;;14.70;99.90;;;;;;5032893;28;20025;-74
2024/02/16 09:41:42;;;;;;;9.68;5.50;;;14.80;99.90;;;;;;5035931;28;20017;-73
2024/02/16 09:44:09;;;;;;;10.65;5.55;;;14.80;99.90;;;;;;5035598;28;20450;-73
2024/02/16 09:46:35;;;;;;;8.30;4.90;;;14.80;99.90;;;;;;5036136;28;20104;-73
2024/02/16 09:49:04;;;;;;;10.48;5.30;;;14.80;99.90;;;;;;5034927;28;20112;-72
2024/02/16 09:51:30;;;;;;;8.75;4.88;;;14.80;99.90;;;;;;5035014;28;20056;-73
2024/02/16 09:53:56;;;;;;;12.75;4.65;;;14.80;99.90;;;;;;5035168;28;20029;-73
2024/02/16 09:56:24;;;;;;;12.60;5.45;;;14.80;99.90;;;;;;5035299;28;20029;-73
2024/02/16 09:58:51;;;;;;;8.68;5.60;;;14.80;99.90;;;;;;5033847;28;20083;-73
2024/02/16 10:01:21;;;;;;;8.68;4.97;;;14.90;99.90;;;;;;5034986;28;20120;-73
2024/02/16 10:03:47;;;;;;;11.18;4.95;;;14.90;99.90;;;;;;5035370;28;20497;-73
2024/02/16 10:06:15;;;;;;;8.05;5.13;;;14.90;99.90;;;;;;5035323;28;20147;-73
2024/02/16 10:08:52;;;;;;;11.95;5.47;;;14.90;99.90;;;;;;5035264;28;20064;-73
2024/02/16 10:11:19;;;;;;;12.18;5.07;;;14.90;99.90;;;;;;5035197;28;20020;-73
2024/02/16 10:14:02;;;;;;;9.93;5.10;;;14.90;99.90;;;;;;5034764;28;20091;-73
2024/02/16 10:16:29;;;;;;;11.50;5.75;;;14.80;99.90;;;;;;5035110;28;20092;-73
2024/02/16 10:19:04;;;;;;;11.50;6.30;;;14.80;99.90;;;;;;5035104;28;20045;-75
2024/02/16 10:21:30;;;;;;;10.98;5.70;;;14.80;99.90;;;;;;5034815;28;20017;-75
2024/02/16 10:24:14;;;;;;;9.85;6.38;;;14.70;99.90;;;;;;5035186;28;20505;-76
2024/02/16 10:26:40;;;;;;;12.07;6.45;;;14.70;99.90;;;;;;5034734;28;20439;-74
2024/02/16 10:29:11;;;;;;;12.35;6.35;;;14.70;99.90;;;;;;5033376;28;20112;-74
2024/02/16 10:31:37;;;;;;;9.63;5.75;;;14.70;99.90;;;;;;5035305;28;20071;-73
2024/02/16 10:34:09;;;;;;;9.80;5.45;;;14.80;99.90;;;;;;5032585;28;20009;-74
2024/02/16 10:36:39;;;;;;;14.32;6.45;;;14.80;99.90;;;;;;5014534;28;20180;-74
2024/02/16 10:39:07;;;;;;;11.68;6.32;;;14.80;99.90;;;;;;5027723;28;20482;-74
2024/02/16 10:41:37;;;;;;;11.35;6.47;;;14.90;99.90;;;;;;5034220;28;20048;-72
2024/02/16 10:44:06;;;;;;;12.55;6.45;;;14.80;99.90;;;;;;5034078;28;20029;-73
2024/02/16 10:46:33;;;;;;;13.68;6.15;;;14.90;99.90;;;;;;5027068;28;20083;-72
2024/02/16 10:48:59;;;;;;;12.70;7.07;;;14.80;99.90;;;;;;5033048;28;20017;-73
2024/02/16 10:51:35;;;;;;;15.35;7.20;;;14.90;99.90;;;;;;5031559;28;20036;-72
2024/02/16 10:54:01;;;;;;;11.57;7.75;;;15.00;99.90;;;;;;5034217;28;20021;-74
2024/02/16 10:56:37;;;;;;;12.93;6.80;;;14.90;99.90;;;;;;5033212;28;20033;-74
2024/02/16 10:59:08;;;;;;;16.02;7.25;;;14.90;99.90;;;;;;5033983;28;20034;-74
2024/02/16 11:01:42;;;;;;;14.73;7.05;;;14.90;99.90;;;;;;5027021;28;20172;-73
2024/02/16 11:04:10;;;;;;;11.43;7.35;;;14.90;99.90;;;;;;5022770;28;20033;-73
2024/02/16 11:06:54;;;;;;;14.05;7.32;;;15.00;99.90;;;;;;5027418;28;20029;-73
2024/02/16 11:09:25;;;;;;;13.77;7.43;;;14.90;99.90;;;;;;5030463;28;20470;-72
2024/02/16 11:11:58;;;;;;;15.38;7.28;;;14.90;99.90;;;;;;5032666;28;20108;-71
2024/02/16 11:14:33;;;;;;;18.50;6.97;;;14.90;99.90;;;;;;5031955;28;20199;-71
2024/02/16 11:16:59;;;;;;;17.30;7.38;;;14.90;99.90;;;;;;5033521;28;20040;-72
2024/02/16 11:19:25;;;;;;;15.75;7.32;;;14.90;99.90;;;;;;5028260;28;20470;-72
2024/02/16 11:22:04;;;;;;;16.63;7.25;;;14.90;99.90;;;;;;5027318;28;20022;-72
2024/02/16 11:24:34;;;;;;;16.63;8.27;;;14.90;99.90;;;;;;5025286;28;20080;-74
2024/02/16 11:27:03;;;;;;;18.13;8.65;;;15.00;99.90;;;;;;5031266;28;20024;-72
2024/02/16 11:29:36;;;;;;;16.25;8.32;;;15.00;99.90;;;;;;5032213;28;20029;-71
2024/02/16 11:32:02;;;;;;;18.20;8.48;;;15.00;99.90;;;;;;5035081;28;20025;-71
2024/02/16 11:34:29;;;;;;;15.73;9.25;;;15.00;99.90;;;;;;5030589;28;20387;-72
2024/02/16 11:36:56;;;;;;;18.63;8.80;;;15.00;99.90;;;;;;5031526;28;20155;-72
2024/02/16 11:39:22;;;;;;;21.55;9.70;;;15.00;99.90;;;;;;5033363;28;20044;-72
2024/02/16 11:41:59;;;;;;;20.33;9.43;;;15.00;99.90;;;;;;5029789;28;20072;-72
2024/02/16 11:44:26;;;;;;;18.65;9.63;;;14.90;99.90;;;;;;5026360;28;20104;-72
2024/02/16 11:46:55;;;;;;;19.40;8.95;;;14.90;99.90;;;;;;5028509;28;20025;-72
2024/02/16 11:49:21;;;;;;;16.88;9.85;;;15.00;99.90;;;;;;5032646;28;20049;-72
2024/02/16 11:51:47;;;;;;;19.10;9.95;;;15.00;99.90;;;;;;5033368;28;20501;-72
2024/02/16 11:54:15;;;;;;;17.45;10.77;;;15.10;99.90;;;;;;5032645;28;20104;-72
2024/02/16 11:56:51;;;;;;;16.40;9.30;;;15.00;99.90;;;;;;5032661;28;20029;-72
2024/02/16 11:59:17;;;;;;;18.40;11.05;;;15.00;99.90;;;;;;5020409;28;20025;-73
2024/02/16 12:01:54;;;;;;;18.10;9.93;;;15.00;99.90;;;;;;5031417;28;20095;-72
2024/02/16 12:04:25;;;;;;;17.08;9.60;;;15.10;99.90;;;;;;5030770;28;20116;-72
2024/02/16 12:07:02;;;;;;;20.02;10.18;;;15.10;99.90;;;;;;5032276;28;20028;-72
2024/02/16 12:09:29;;;;;;;19.65;9.27;;;15.10;99.90;;;;;;5032652;28;20026;-72
2024/02/16 12:11:55;;;;;;;16.13;9.80;;;15.10;99.90;;;;;;5031865;28;20033;-72
2024/02/16 12:14:22;;;;;;;16.70;10.25;;;15.10;99.90;;;;;;5031215;28;20548;-72
2024/02/16 12:16:55;;;;;;;17.38;9.95;;;15.10;99.90;;;;;;5031482;28;20021;-72
2024/02/16 12:19:22;;;;;;;;;;;15.00;99.90;;;;;;5032552;28;20026;-72
2024/02/16 12:21:54;;;;;;;14.48;9.55;;;14.90;99.90;;;;;;5032387;28;20358;-72
2024/02/16 12:24:22;;;;;;;16.48;10.32;;;14.90;99.90;;;;;;5032292;28;20044;-72
2024/02/16 12:26:48;;;;;;;14.10;9.45;;;14.90;99.90;;;;;;5031893;28;20049;-71
2024/02/16 12:29:15;;;;;;;18.40;10.27;;;14.90;99.90;;;;;;5032077;28;20053;-72
2024/02/16 12:31:42;;;;;;;16.73;11.68;;;14.90;99.90;;;;;;5032253;28;20029;-72
2024/02/16 12:34:07;;;;;;;20.67;11.77;;;14.80;99.90;;;;;;5032006;28;20544;-72
2024/02/16 12:36:41;;;;;;;20.05;12.63;;;14.80;99.90;;;;;;5031621;28;20033;-72
2024/02/16 12:39:08;;;;;;;20.77;11.82;;;14.90;99.90;;;;;;5031372;28;20014;-73
2024/02/16 12:41:35;;;;;;;17.55;11.68;;;14.80;99.90;;;;;;5028805;28;20029;-73
2024/02/16 12:44:02;;;;;;;22.52;12.15;;;14.80;99.90;;;;;;4999906;28;20041;-72
2024/02/16 12:46:28;;;;;;;17.20;12.65;;;14.80;99.90;;;;;;5006379;28;20528;-72
2024/02/16 12:48:54;;;;;;;20.73;12.70;;;14.90;99.90;;;;;;5036520;28;20022;-71
2024/02/16 12:51:20;;;;;;;21.95;12.93;;;14.90;99.90;;;;;;5033610;28;20104;-72
2024/02/16 12:53:46;;;;;;;18.73;12.55;;;14.80;99.90;;;;;;5035987;28;20132;-73
2024/02/16 12:56:12;;;;;;;18.63;12.10;;;14.80;99.90;;;;;;5038747;28;20052;-73
2024/02/16 12:58:38;;;;;;;18.67;11.98;;;14.80;99.90;;;;;;5034820;28;20061;-73
2024/02/16 13:01:07;;;;;;;19.27;11.50;;;14.80;99.90;;;;;;5031491;28;20029;-73
2024/02/16 13:03:37;;;;;;;15.73;11.27;;;14.80;99.90;;;;;;5038326;28;20076;-73
2024/02/16 13:06:03;;;;;;;18.40;11.95;;;14.80;99.90;;;;;;5034043;28;20482;-73